Flight Track Log - Related Links

Times and Time Zones

All times are in EDT time to prevent confusion due to time zone crossing. See the EJA922P flight status page for this flight to view local times or setup timezone preferences in your user account.

Time Position Orientation Groundspeed Altitude Reporting Facility
EDT Latitude Longitude Course Direction KTS MPH feet Rate Location/Type
Thu 01:36:58 PM 42.4117 -122.8794 44° Northeast 181 208 3,400  Level Seattle Center
Thu 01:37:59 PM 42.4581 -122.8189 44° Northeast 248 285 7,700 3,659 Climbing Seattle Center
Thu 01:39:01 PM 42.4381 -122.7236 106° East 270 311 10,900 2,283 Climbing Seattle Center
Thu 01:41:03 PM 42.3725 -122.4881 111° Southeast 370 426 14,700 2,008 Climbing Seattle Center
Thu 01:43:06 PM 42.2258 -122.2292 127° Southeast 416 479 19,100 2,087 Climbing Seattle Center
Thu 01:44:07 PM 42.1317 -122.1344 143° Southeast 419 482 21,100 1,888 Climbing Seattle Center
Thu 01:46:04 PM 41.9428 -121.9483 144° Southeast 443 510 24,700 1,753 Climbing Oakland Center
Thu 01:47:05 PM 41.8411 -121.8467 143° Southeast 457 526 26,300 1,512 Climbing Oakland Center
Thu 01:48:07 PM 41.7350 -121.7411 143° Southeast 474 545 27,800 1,453 Climbing Oakland Center
Thu 01:49:13 PM 41.6025 -121.6114 144° Southeast 492 566 29,400 1,313 Climbing Seattle Center
Thu 01:50:15 PM 41.4878 -121.4997 144° Southeast 509 586 30,600 1,220 Climbing Seattle Center
Thu 01:51:16 PM 41.3706 -121.3856 144° Southeast 518 596 31,900 1,279 Climbing Seattle Center
Thu 01:52:17 PM 41.2500 -121.2689 144° Southeast 533 613 33,200 1,193 Climbing Seattle Center
Thu 01:54:17 PM 41.0000 -121.0239 143° Southeast 557 641 35,500 1,055 Climbing Oakland Center
Thu 01:55:19 PM 40.8692 -120.9000 144° Southeast 572 658 36,400 912 Climbing Oakland Center
Thu 01:56:22 PM 40.7372 -120.7733 144° Southeast 586 674 37,400 976 Climbing Seattle Center
Thu 01:57:22 PM 40.6036 -120.6497 145° Southeast 586 674 38,400 787 Climbing Oakland Center
Thu 01:58:24 PM 40.4467 -120.5000 144° Southeast 586 674 39,000 290 Climbing Oakland Center
Thu 01:59:26 PM 40.3253 -120.3914 146° Southeast 585 673 39,000  Level Oakland Center
Thu 02:00:27 PM 40.1972 -120.2689 144° Southeast 576 663 39,000  Level Oakland Center
Thu 02:01:29 PM 40.0453 -120.1289 145° Southeast 564 649 39,000  Level Oakland Center
Thu 02:02:31 PM 39.9225 -120.0142 144° Southeast 554 638 39,000  Level Oakland Center
Thu 02:03:32 PM 39.7981 -119.9008 145° Southeast 551 634 39,000  Level Oakland Center
Thu 02:04:34 PM 39.6753 -119.7892 145° Southeast 546 628 39,000  Level Oakland Center
Thu 02:05:36 PM 39.5533 -119.6778 145° Southeast 543 625 39,000  Level Oakland Center
Thu 02:06:37 PM 39.4447 -119.5497 138° Southeast 536 617 39,000  Level Oakland Center
Thu 02:07:39 PM 39.3400 -119.4158 135° Southeast 536 617 39,000  Level Oakland Center
Thu 02:08:41 PM 39.2125 -119.2544 136° Southeast 536 617 39,000  Level Oakland Center
Thu 02:09:42 PM 39.1075 -119.1236 136° Southeast 535 616 39,000  Level Oakland Center
Thu 02:10:44 PM 39.0014 -118.9897 136° Southeast 536 617 39,000  Level Oakland Center
Thu 02:11:46 PM 38.8956 -118.8586 136° Southeast 536 617 39,000  Level Oakland Center
Thu 02:13:49 PM 38.6603 -118.5681 137° Southeast 536 617 39,000  Level Oakland Center
Thu 02:14:51 PM 38.5536 -118.4367 136° Southeast 536 617 39,000  Level Oakland Center
Thu 02:15:53 PM 38.4464 -118.3064 136° Southeast 536 617 39,000  Level Oakland Center
Thu 02:16:54 PM 38.3389 -118.1758 136° Southeast 536 617 39,000  Level Oakland Center
Thu 02:17:56 PM 38.2211 -118.0336 136° Southeast 535 616 39,000  Level Oakland Center
Thu 02:18:58 PM 38.1144 -117.9039 136° Southeast 534 615 39,000  Level Oakland Center
Thu 02:20:00 PM 38.0064 -117.7775 137° Southeast 534 615 39,000  Level Oakland Center
Thu 02:21:01 PM 37.8886 -117.6711 145° Southeast 523 602 39,000 -341 Level Oakland Center
Thu 02:22:03 PM 37.7678 -117.5689 146° Southeast 523 602 38,300 -1,500 Descending Oakland Center
Thu 02:23:05 PM 37.6172 -117.4383 146° Southeast 549 632 35,900 -2,146 Descending Oakland Center
Thu 02:24:06 PM 37.4972 -117.3353 146° Southeast 530 610 33,900 -1,615 Descending Oakland Center
Thu 02:24:49 PM 37.4256 -117.2756 146° Southeast 525 604 33,100 -321 Descending Los Angeles Center
Thu 02:26:54 PM 37.1600 -117.0500 146° Southeast 524 603 33,000 -32 Descending Los Angeles Center
Thu 02:27:56 PM 37.0414 -116.9494 146° Southeast 518 596 33,000  Level Los Angeles Center
Thu 02:28:58 PM 36.9222 -116.8500 146° Southeast 517 595 33,000 -919 Level Los Angeles Center
Thu 02:30:00 PM 36.8008 -116.7442 145° Southeast 529 609 31,100 -1,887 Descending Los Angeles Center
Thu 02:31:02 PM 36.6981 -116.6028 132° Southeast 546 628 29,100 -1,476 Descending Los Angeles Center
Thu 02:33:07 PM 36.4992 -116.3181 131° Southeast 521 600 26,500 -2,182 Descending Los Angeles Center
Thu 02:34:09 PM 36.3839 -116.1558 131° Southeast 517 595 22,300 -3,588 Descending Los Angeles Center
Thu 02:34:44 PM 36.3347 -116.0903 133° Southeast 504 580 20,700 -2,613 Descending Los Angeles Center
Thu 02:35:11 PM 36.2969 -116.0378 132° Southeast 469 540 19,600 -2,598 Descending Los Angeles Center
Thu 02:36:21 PM 36.2158 -115.9233 131° Southeast 364 419 16,500 -1,806 Descending Los Angeles Center
Thu 02:38:17 PM 36.1375 -115.7053 114° Southeast 364 419 14,000 -1,207 Descending Los Angeles Center
Thu 02:39:20 PM 36.0981 -115.5814 111° Southeast 362 417 12,900 -1,056 Descending Los Angeles Center
Thu 02:40:22 PM 36.0617 -115.4697 112° Southeast 355 409 11,800 -1,016 Descending Los Angeles Center
Thu 02:41:24 PM 36.0292 -115.3550 109° East 331 381 10,800 -1,113 Descending Los Angeles Center
Thu 02:42:26 PM 36.0219 -115.2456 95° East 322 371 9,500 -1,073 Descending Los Angeles Center
Thu 02:43:27 PM 36.0128 -115.1358 96° East 293 337 8,600 -689 Descending Los Angeles Center
Thu 02:44:28 PM 36.0078 -115.0525 94° East 224 258 8,100 -295 Descending Los Angeles Center
Thu 02:45:29 PM 36.0056 -114.9733 92° East 232 267 8,000 -283 Descending Los Angeles Center
Thu 02:46:35 PM 36.0578 -114.9056 46° Northeast 237 273 7,500 -750 Descending Los Angeles Center
Thu 02:47:37 PM 36.1092 -114.9200 347° North 188 216 6,400 -1,161 Descending Los Angeles Center
Thu 02:48:39 PM 36.1375 -114.9817 300° West 195 224 5,100 -1,016 Descending Los Angeles Center
Thu 02:49:41 PM 36.1450 -115.0442 278° West 188 216 4,300 -684 Descending Los Angeles Center
Thu 02:50:33 PM 36.1511 -115.0956 278° West 171 197 3,800 -690 Descending Los Angeles Center
Thu 02:51:34 PM 36.1378 -115.1344 247° West 121 139 3,000 -822 Descending Los Angeles Center
Thu 02:51:46 PM 36.1308 -115.1381 203° Southwest 127 146 2,800 -689 Descending Los Angeles Center
Thu 02:52:35 PM 36.1033 -115.1539 205° Southwest 128 147 2,300 -581 Descending Los Angeles Center
Thu 02:52:48 PM 36.0981 -115.1564 201° Southwest 128 147 2,200 -462 Descending Los Angeles Center
Thu 02:54:00 PM 36.0801 -115.1523 180° South  Level Estimated

Login

Don't have an account? Register now (free) for customized features, flight alerts, and more!